Time;durP1;ratioP1;P1;durP2;ratioP2;P2;SDS_P1;SDS_P2;PMS_P1;PMS_P2;Temp;Humidity;BMP_temperature;BMP_pressure;BME280_temperature;BME280_humidity;BME280_pressure;Samples;Min_cycle;Max_cycle;Signal;HPM_P1;HPM_P2
2022/09/27 00:01:43;;;;;;;;;;;;;;;;;;5071337;28;19920;-58
2022/09/27 00:04:08;;;;;;;;;;;;;;;;;;5074433;28;19955;-58
2022/09/27 00:06:33;;;;;;;;;;;;;;;;;;5072762;28;19920;-57
2022/09/27 00:08:59;;;;;;;;;;;;;;;;;;5073906;28;19916;-58
2022/09/27 00:11:24;;;;;;;;;;;;;;;;;;5074884;28;19921;-58
2022/09/27 00:13:49;;;;;;;;;;;;;;;;;;5072089;28;19920;-58
2022/09/27 00:16:15;;;;;;;;;;;;;;;;;;5074370;28;19918;-57
2022/09/27 00:18:40;;;;;;;;;;;;;;;;;;5075054;28;19916;-57
2022/09/27 00:21:05;;;;;;;;;;;;;;;;;;5073065;28;19959;-58
2022/09/27 00:23:30;;;;;;;;;;;;;;;;;;5075377;28;19916;-57
2022/09/27 00:25:56;;;;;;;;;;;;;;;;;;5076447;28;19963;-57
2022/09/27 00:28:21;;;;;;;;;;;;;;;;;;5076645;28;20393;-56
2022/09/27 00:30:46;;;;;;;;;;;;;;;;;;5074359;28;19920;-57
2022/09/27 00:33:11;;;;;;;;;;;;;;;;;;5072537;28;19922;-58
2022/09/27 00:35:36;;;;;;;;;;;;;;;;;;5070368;28;19930;-58
2022/09/27 00:38:02;;;;;;;;;;;;;;;;;;5071640;28;19923;-58
2022/09/27 00:40:27;;;;;;;;;;;;;;;;;;5092377;27;19985;-58
2022/09/27 00:42:52;;;;;;;;;;;;;;;;;;5090180;28;19927;-58
2022/09/27 00:45:17;;;;;;;;;;;;;;;;;;5076470;28;19916;-57
2022/09/27 00:47:43;;;;;;;;;;;;;;;;;;5075004;28;19923;-57
2022/09/27 00:50:08;;;;;;;;;;;;;;;;;;5071149;28;19924;-56
2022/09/27 00:52:33;;;;;;;;;;;;;;;;;;5075132;28;20274;-57
2022/09/27 00:54:58;;;;;;;;;;;;;;;;;;5075214;28;19935;-55
2022/09/27 00:57:23;;;;;;;;;;;;;;;;;;5057772;28;19916;-55
2022/09/27 00:59:49;;;;;;;;;;;;;;;;;;5088264;28;20377;-56
2022/09/27 01:02:14;;;;;;;;;;;;;;;;;;5075180;28;19917;-57
2022/09/27 01:04:39;;;;;;;;;;;;;;;;;;5076000;28;20508;-57
2022/09/27 01:07:04;;;;;;;;;;;;;;;;;;5073422;28;19920;-54
2022/09/27 01:09:29;;;;;;;;;;;;;;;;;;5074239;28;20389;-55
2022/09/27 01:11:55;;;;;;;;;;;;;;;;;;5074689;28;20280;-57
2022/09/27 01:14:20;;;;;;;;;;;;;;;;;;5072924;28;19928;-56
2022/09/27 01:16:45;;;;;;;;;;;;;;;;;;5081033;28;19917;-56
2022/09/27 01:19:10;;;;;;;;;;;;;;;;;;5078249;28;19916;-57
2022/09/27 01:21:36;;;;;;;;;;;;;;;;;;5074096;28;19916;-53
2022/09/27 01:24:01;;;;;;;;;;;;;;;;;;5091750;28;19916;-56
2022/09/27 01:26:27;;;;;;;;;;;;;;;;;;5079061;28;19920;-57
2022/09/27 01:28:52;;;;;;;;;;;;;;;;;;5074709;28;20537;-56
2022/09/27 01:31:18;;;;;;;;;;;;;;;;;;5071244;28;20002;-58
2022/09/27 01:33:43;;;;;;;;;;;;;;;;;;5072548;28;20011;-57
2022/09/27 01:36:08;;;;;;;;;;;;;;;;;;5076065;28;20392;-57
2022/09/27 01:38:34;;;;;;;;;;;;;;;;;;5076315;28;19917;-58
2022/09/27 01:41:00;;;;;;;;;;;;;;;;;;5074195;28;19917;-55
2022/09/27 01:43:37;;;;;;;;;;;;;;;;;;5072591;28;19921;-57
2022/09/27 01:46:02;;;;;;;;;;;;;;;;;;5071697;28;19920;-54
2022/09/27 01:48:57;;;;;;;;;;;;;;;;;;5071706;28;20019;-57
2022/09/27 01:51:22;;;;;;;;;;;;;;;;;;5078132;28;19923;-57
2022/09/27 01:53:48;;;;;;;;;;;;;;;;;;5072696;28;19920;-57
2022/09/27 01:56:37;;;;;;;;;;;;;;;;;;5061395;28;19966;-57
2022/09/27 01:59:09;;;;;;;;;;;;;;;;;;5081142;28;20756;-56
2022/09/27 02:01:36;;;;;;;;;;;;;;;;;;5090726;28;19916;-54
2022/09/27 02:04:01;;;;;;;;;;;;;;;;;;5077500;28;19916;-57
2022/09/27 02:06:29;;;;;;;;;;;;;;;;;;5072809;28;20605;-57
2022/09/27 02:08:57;;;;;;;;;;;;;;;;;;5069774;28;19927;-56
2022/09/27 02:11:38;;;;;;;;;;;;;;;;;;5073634;28;19927;-57
2022/09/27 02:14:10;;;;;;;;;;;;;;;;;;5079483;28;19924;-57
2022/09/27 02:16:45;;;;;;;;;;;;;;;;;;5081077;28;19916;-56
2022/09/27 02:19:10;;;;;;;;;;;;;;;;;;5078107;28;19926;-55
2022/09/27 02:21:36;;;;;;;;;;;;;;;;;;5075798;28;20747;-57
2022/09/27 02:24:03;;;;;;;;;;;;;;;;;;5076592;28;19916;-57
2022/09/27 02:26:28;;;;;;;;;;;;;;;;;;5076906;28;19920;-56
2022/09/27 02:28:53;;;;;;;;;;;;;;;;;;5091544;27;20078;-55
2022/09/27 02:31:28;;;;;;;;;;;;;;;;;;5090849;28;19961;-53
2022/09/27 02:33:55;;;;;;;;;;;;;;;;;;5063448;28;19916;-56
2022/09/27 02:36:20;;;;;;;;;;;;;;;;;;5090142;28;19917;-56
2022/09/27 02:38:45;;;;;;;;;;;;;;;;;;5079610;28;19917;-55
2022/09/27 02:41:12;;;;;;;;;;;;;;;;;;5079596;28;20362;-57
2022/09/27 02:43:38;;;;;;;;;;;;;;;;;;5076817;28;19919;-55
2022/09/27 02:46:05;;;;;;;;;;;;;;;;;;5090596;27;19923;-53
2022/09/27 02:48:31;;;;;;;;;;;;;;;;;;5091930;28;19920;-54
2022/09/27 02:50:56;;;;;;;;;;;;;;;;;;5075762;28;20365;-57
2022/09/27 02:53:27;;;;;;;;;;;;;;;;;;5074663;28;20219;-58
2022/09/27 02:55:58;;;;;;;;;;;;;;;;;;5080673;28;20512;-58
2022/09/27 02:58:42;;;;;;;;;;;;;;;;;;5076682;28;19946;-56
2022/09/27 03:01:18;;;;;;;;;;;;;;;;;;5089474;28;19920;-58
2022/09/27 03:04:01;;;;;;;;;;;;;;;;;;5079689;28;19974;-59
2022/09/27 03:06:26;;;;;;;;;;;;;;;;;;5093501;28;19920;-58
2022/09/27 03:08:51;;;;;;;;;;;;;;;;;;5077595;28;19965;-58
2022/09/27 03:11:16;;;;;;;;;;;;;;;;;;5080311;28;19941;-60
2022/09/27 03:13:42;;;;;;;;;;;;;;;;;;5081967;28;19920;-59
2022/09/27 03:16:07;;;;;;;;;;;;;;;;;;5080864;28;19934;-59
2022/09/27 03:18:58;;;;;;;;;;;;;;;;;;5092727;28;20399;-59
2022/09/27 03:21:42;;;;;;;;;;;;;;;;;;5075237;28;19923;-59
2022/09/27 03:24:08;;;;;;;;;;;;;;;;;;5073662;28;19916;-59
2022/09/27 03:26:33;;;;;;;;;;;;;;;;;;5072278;28;19916;-59
2022/09/27 03:28:58;;;;;;;;;;;;;;;;;;5075287;28;19995;-59
2022/09/27 03:31:23;;;;;;;;;;;;;;;;;;5074549;28;20393;-59
2022/09/27 03:34:09;;;;;;;;;;;;;;;;;;5075981;28;20054;-59
2022/09/27 03:36:34;;;;;;;;;;;;;;;;;;5076034;28;19924;-59
2022/09/27 03:38:59;;;;;;;;;;;;;;;;;;5074695;28;19959;-59
2022/09/27 03:41:25;;;;;;;;;;;;;;;;;;5077787;28;19939;-59
2022/09/27 03:43:50;;;;;;;;;;;;;;;;;;5058465;28;19916;-59
2022/09/27 03:46:15;;;;;;;;;;;;;;;;;;5077457;28;19928;-59
2022/09/27 03:48:41;;;;;;;;;;;;;;;;;;5079035;28;19954;-58
2022/09/27 03:51:07;;;;;;;;;;;;;;;;;;5076329;28;20407;-59
2022/09/27 03:53:33;;;;;;;;;;;;;;;;;;5076104;28;19916;-59
2022/09/27 03:55:58;;;;;;;;;;;;;;;;;;5077350;28;20361;-60
2022/09/27 03:58:23;;;;;;;;;;;;;;;;;;5079925;28;19998;-59
2022/09/27 04:00:49;;;;;;;;;;;;;;;;;;5077845;28;20438;-59
2022/09/27 04:03:14;;;;;;;;;;;;;;;;;;5079364;28;20250;-59
2022/09/27 04:05:42;;;;;;;;;;;;;;;;;;5075275;28;19958;-59
2022/09/27 04:08:13;;;;;;;;;;;;;;;;;;5088504;28;19920;-59
2022/09/27 04:10:39;;;;;;;;;;;;;;;;;;5073936;28;19915;-59
2022/09/27 04:13:04;;;;;;;;;;;;;;;;;;5078109;28;19916;-58
2022/09/27 04:15:36;;;;;;;;;;;;;;;;;;5089386;28;20281;-59
2022/09/27 04:18:21;;;;;;;;;;;;;;;;;;5065241;28;19920;-59
2022/09/27 04:21:07;;;;;;;;;;;;;;;;;;5074756;28;19916;-58
2022/09/27 04:23:34;;;;;;;;;;;;;;;;;;5089262;28;19917;-58
2022/09/27 04:25:59;;;;;;;;;;;;;;;;;;5072821;28;19965;-58
2022/09/27 04:28:40;;;;;;;;;;;;;;;;;;5078214;28;20366;-59
2022/09/27 04:31:06;;;;;;;;;;;;;;;;;;5073806;28;19917;-58
2022/09/27 04:33:52;;;;;;;;;;;;;;;;;;5075007;28;19936;-58
2022/09/27 04:36:26;;;;;;;;;;;;;;;;;;5090577;28;19924;-58
2022/09/27 04:39:01;;;;;;;;;;;;;;;;;;5075947;28;19942;-58
2022/09/27 04:41:27;;;;;;;;;;;;;;;;;;5075821;28;19916;-58
2022/09/27 04:43:53;;;;;;;;;;;;;;;;;;5092793;28;20035;-58
2022/09/27 04:46:20;;;;;;;;;;;;;;;;;;5072679;28;19932;-57
2022/09/27 04:48:45;;;;;;;;;;;;;;;;;;5076335;28;19931;-58
2022/09/27 04:51:10;;;;;;;;;;;;;;;;;;5089590;28;19924;-58
2022/09/27 04:53:35;;;;;;;;;;;;;;;;;;5074573;28;19916;-57
2022/09/27 04:56:04;;;;;;;;;;;;;;;;;;5071693;28;19931;-57
2022/09/27 04:58:30;;;;;;;;;;;;;;;;;;5088051;28;19923;-58
2022/09/27 05:00:55;;;;;;;;;;;;;;;;;;5078933;28;19917;-56
2022/09/27 05:03:39;;;;;;;;;;;;;;;;;;5073074;28;20575;-58
2022/09/27 05:06:10;;;;;;;;;;;;;;;;;;5074177;28;19916;-58
2022/09/27 05:08:35;;;;;;;;;;;;;;;;;;5080069;28;19916;-56
2022/09/27 05:11:12;;;;;;;;;;;;;;;;;;5089975;28;19933;-59
2022/09/27 05:13:37;;;;;;;;;;;;;;;;;;5080330;28;19916;-59
2022/09/27 05:16:03;;;;;;;;;;;;;;;;;;5079257;28;20712;-58
2022/09/27 05:18:56;;;;;;;;;;;;;;;;;;5073514;28;20385;-59
2022/09/27 05:21:40;;;;;;;;;;;;;;;;;;5076676;28;20008;-57
2022/09/27 05:24:05;;;;;;;;;;;;;;;;;;5080392;28;19959;-55
2022/09/27 05:26:30;;;;;;;;;;;;;;;;;;5089580;28;20005;-59
2022/09/27 05:28:55;;;;;;;;;;;;;;;;;;5073199;28;19958;-59
2022/09/27 05:31:21;;;;;;;;;;;;;;;;;;5070958;28;20442;-59
2022/09/27 05:33:46;;;;;;;;;;;;;;;;;;5079617;28;19916;-60
2022/09/27 05:36:33;;;;;;;;;;;;;;;;;;5080169;28;19955;-59
2022/09/27 05:38:58;;;;;;;;;;;;;;;;;;5074789;28;20015;-59
2022/09/27 05:41:25;;;;;;;;;;;;;;;;;;5083696;28;19929;-61
2022/09/27 05:43:51;;;;;;;;;;;;;;;;;;5072058;28;19916;-59
2022/09/27 05:46:16;;;;;;;;;;;;;;;;;;5075717;28;20407;-59
2022/09/27 05:48:42;;;;;;;;;;;;;;;;;;5074616;28;19916;-58
2022/09/27 05:51:07;;;;;;;;;;;;;;;;;;5092554;28;20555;-58
2022/09/27 05:53:35;;;;;;;;;;;;;;;;;;5084105;28;19920;-59
2022/09/27 05:56:03;;;;;;;;;;;;;;;;;;5076644;28;19924;-59
2022/09/27 05:58:37;;;;;;;;;;;;;;;;;;5083687;28;19916;-59
2022/09/27 06:01:12;;;;;;;;;;;;;;;;;;5094871;28;19938;-59
2022/09/27 06:03:56;;;;;;;;;;;;;;;;;;5079176;28;19916;-59
2022/09/27 06:06:40;;;;;;;;;;;;;;;;;;5077517;28;19928;-59
2022/09/27 06:09:12;;;;;;;;;;;;;;;;;;5078223;28;19912;-59
2022/09/27 06:11:37;;;;;;;;;;;;;;;;;;5082316;28;20570;-61
2022/09/27 06:14:03;;;;;;;;;;;;;;;;;;5095033;28;19916;-61
2022/09/27 06:16:32;;;;;;;;;;;;;;;;;;5084739;28;19966;-61
2022/09/27 06:18:58;;;;;;;;;;;;;;;;;;5079504;28;19924;-59
2022/09/27 06:21:23;;;;;;;;;;;;;;;;;;5084949;28;19916;-58
2022/09/27 06:23:54;;;;;;;;;;;;;;;;;;5080963;28;19919;-59
2022/09/27 06:26:26;;;;;;;;;;;;;;;;;;5078849;28;19980;-59
2022/09/27 06:29:13;;;;;;;;;;;;;;;;;;5086289;28;20770;-59
2022/09/27 06:31:45;;;;;;;;;;;;;;;;;;5082154;28;19923;-57
2022/09/27 06:34:31;;;;;;;;;;;;;;;;;;5081781;28;19931;-58
2022/09/27 06:36:57;;;;;;;;;;;;;;;;;;5080175;28;19954;-59
2022/09/27 06:39:23;;;;;;;;;;;;;;;;;;5085080;28;19952;-59
2022/09/27 06:42:14;;;;;;;;;;;;;;;;;;5081550;28;20010;-55
2022/09/27 06:44:59;;;;;;;;;;;;;;;;;;5086815;28;19935;-58
2022/09/27 06:47:43;;;;;;;;;;;;;;;;;;5083288;28;19969;-59
2022/09/27 06:50:29;;;;;;;;;;;;;;;;;;5082749;28;19955;-59
2022/09/27 06:52:54;;;;;;;;;;;;;;;;;;5099400;28;20014;-59
2022/09/27 06:55:19;;;;;;;;;;;;;;;;;;5084463;28;19924;-59
2022/09/27 07:00:28;;;;;;;;;;;;;;;;;;5096495;28;19991;-59
2022/09/27 07:03:34;;;;;;;;;;;;;;;;;;4998500;28;20012;-59
2022/09/27 07:06:22;;;;;;;;;;;;;;;;;;5080386;28;19981;-59
2022/09/27 07:09:01;;;;;;;;;;;;;;;;;;5092971;28;19916;-59
2022/09/27 07:11:26;;;;;;;;;;;;;;;;;;5084665;28;19977;-58
2022/09/27 07:13:52;;;;;;;;;;;;;;;;;;5082413;28;19916;-59
2022/09/27 07:16:17;;;;;;;;;;;;;;;;;;5080924;28;19928;-58
2022/09/27 07:18:43;;;;;;;;;;;;;;;;;;5084572;28;19978;-58
2022/09/27 07:21:08;;;;;;;;;;;;;;;;;;5098204;28;20489;-58
2022/09/27 07:23:33;;;;;;;;;;;;;;;;;;5086946;28;20690;-57
2022/09/27 07:26:00;;;;;;;;;;;;;;;;;;5081900;28;20313;-58
2022/09/27 07:28:25;;;;;;;;;;;;;;;;;;5100109;28;19916;-59
2022/09/27 07:30:50;;;;;;;;;;;;;;;;;;5080109;28;20613;-55
2022/09/27 07:33:16;;;;;;;;;;;;;;;;;;5082258;28;19920;-58
2022/09/27 07:35:42;;;;;;;;;;;;;;;;;;5087147;28;19993;-59
2022/09/27 07:38:07;;;;;;;;;;;;;;;;;;5076556;28;20368;-58
2022/09/27 07:40:33;;;;;;;;;;;;;;;;;;5081334;28;20009;-57
2022/09/27 07:42:59;;;;;;;;;;;;;;;;;;5075982;28;20011;-55
2022/09/27 07:45:24;;;;;;;;;;;;;;;;;;5074371;28;19922;-56
2022/09/27 07:48:06;;;;;;;;;;;;;;;;;;5089557;28;20433;-57
2022/09/27 07:50:51;;;;;;;;;;;;;;;;;;5077570;28;20078;-57
2022/09/27 07:53:33;;;;;;;;;;;;;;;;;;5093914;28;20012;-58
2022/09/27 07:56:22;;;;;;;;;;;;;;;;;;5082660;28;20696;-57
2022/09/27 07:58:47;;;;;;;;;;;;;;;;;;5081347;28;19992;-57
2022/09/27 08:01:12;;;;;;;;;;;;;;;;;;5091572;28;19920;-57
2022/09/27 08:03:39;;;;;;;;;;;;;;;;;;5075704;28;20067;-57
2022/09/27 08:06:04;;;;;;;;;;;;;;;;;;5076319;28;19927;-56
2022/09/27 08:08:29;;;;;;;;;;;;;;;;;;5080598;28;20562;-56
2022/09/27 08:10:55;;;;;;;;;;;;;;;;;;5071073;28;19947;-55
2022/09/27 08:13:20;;;;;;;;;;;;;;;;;;5077460;28;19920;-56
2022/09/27 08:15:51;;;;;;;;;;;;;;;;;;5091208;28;21143;-56
2022/09/27 08:18:16;;;;;;;;;;;;;;;;;;5094005;28;19962;-57
2022/09/27 08:20:54;;;;;;;;;;;;;;;;;;5075627;28;19993;-57
2022/09/27 08:23:45;;;;;;;;;;;;;;;;;;5074879;28;19920;-57
2022/09/27 08:26:33;;;;;;;;;;;;;;;;;;5071717;28;20369;-57
2022/09/27 08:29:04;;;;;;;;;;;;;;;;;;5081021;28;19917;-55
2022/09/27 08:31:31;;;;;;;;;;;;;;;;;;5064914;28;19938;-58
2022/09/27 08:33:56;;;;;;;;;;;;;;;;;;5078907;28;20283;-58
2022/09/27 08:36:23;;;;;;;;;;;;;;;;;;5076448;28;19928;-57
2022/09/27 08:38:48;;;;;;;;;;;;;;;;;;5084786;28;20349;-57
2022/09/27 08:41:14;;;;;;;;;;;;;;;;;;5076782;28;20421;-56
2022/09/27 08:43:39;;;;;;;;;;;;;;;;;;5084083;28;19916;-57
2022/09/27 08:46:04;;;;;;;;;;;;;;;;;;5091368;28;19916;-58
2022/09/27 08:48:30;;;;;;;;;;;;;;;;;;5077349;28;19916;-58
2022/09/27 08:50:55;;;;;;;;;;;;;;;;;;5077716;28;19919;-57
2022/09/27 08:53:20;;;;;;;;;;;;;;;;;;5073420;28;19988;-57
2022/09/27 08:55:46;;;;;;;;;;;;;;;;;;5094874;28;19993;-57
2022/09/27 08:58:16;;;;;;;;;;;;;;;;;;5080969;28;19967;-58
2022/09/27 09:00:42;;;;;;;;;;;;;;;;;;5092516;28;19958;-58
2022/09/27 09:03:08;;;;;;;;;;;;;;;;;;5078540;28;19936;-58
2022/09/27 09:05:37;;;;;;;;;;;;;;;;;;5081587;28;20373;-58
2022/09/27 09:08:02;;;;;;;;;;;;;;;;;;5086820;28;19965;-58
2022/09/27 09:13:11;;;;;;;;;;;;;;;;;;5076420;28;20013;-58
2022/09/27 09:15:54;;;;;;;;;;;;;;;;;;5077508;28;19924;-58
2022/09/27 09:18:21;;;;;;;;;;;;;;;;;;5083683;28;19920;-59
2022/09/27 09:21:05;;;;;;;;;;;;;;;;;;5078266;28;20224;-58
2022/09/27 09:23:30;;;;;;;;;;;;;;;;;;5081487;28;20384;-58
2022/09/27 09:25:55;;;;;;;;;;;;;;;;;;5083371;28;19912;-58
2022/09/27 09:28:21;;;;;;;;;;;;;;;;;;5083091;28;19916;-58
2022/09/27 09:30:46;;;;;;;;;;;;;;;;;;5083439;28;19916;-59
2022/09/27 09:33:11;;;;;;;;;;;;;;;;;;5093142;28;19923;-58
2022/09/27 09:35:36;;;;;;;;;;;;;;;;;;5077126;28;19924;-58
2022/09/27 09:38:02;;;;;;;;;;;;;;;;;;5078027;28;19966;-58
2022/09/27 09:40:27;;;;;;;;;;;;;;;;;;5081541;28;19915;-58
2022/09/27 09:42:52;;;;;;;;;;;;;;;;;;5093031;28;20031;-58
2022/09/27 09:45:18;;;;;;;;;;;;;;;;;;5076931;28;19916;-58
2022/09/27 09:47:44;;;;;;;;;;;;;;;;;;5081107;28;20004;-59
2022/09/27 09:50:09;;;;;;;;;;;;;;;;;;5092325;28;19916;-59
2022/09/27 09:52:34;;;;;;;;;;;;;;;;;;5081900;28;19922;-58
2022/09/27 09:55:00;;;;;;;;;;;;;;;;;;5072937;28;19928;-58
2022/09/27 09:57:25;;;;;;;;;;;;;;;;;;5077610;28;19916;-59
2022/09/27 09:59:53;;;;;;;;;;;;;;;;;;5074092;28;20250;-58
2022/09/27 10:02:18;;;;;;;;;;;;;;;;;;5076920;28;20000;-58
2022/09/27 10:04:43;;;;;;;;;;;;;;;;;;5082397;28;20030;-59
2022/09/27 10:07:09;;;;;;;;;;;;;;;;;;5075240;28;20415;-59
2022/09/27 10:09:35;;;;;;;;;;;;;;;;;;5088481;28;20296;-59
2022/09/27 10:12:20;;;;;;;;;;;;;;;;;;5069153;28;19916;-59
2022/09/27 10:14:46;;;;;;;;;;;;;;;;;;5080409;28;19924;-59
2022/09/27 10:17:11;;;;;;;;;;;;;;;;;;5080147;28;20003;-59
2022/09/27 10:19:38;;;;;;;;;;;;;;;;;;5074363;28;19955;-59
2022/09/27 10:22:03;;;;;;;;;;;;;;;;;;5096134;28;19913;-59
2022/09/27 10:24:29;;;;;;;;;;;;;;;;;;5095294;28;19920;-59
2022/09/27 10:27:17;;;;;;;;;;;;;;;;;;5077848;28;19916;-59
2022/09/27 10:29:43;;;;;;;;;;;;;;;;;;5078598;28;19922;-60
2022/09/27 10:32:18;;;;;;;;;;;;;;;;;;5080084;28;20357;-60
2022/09/27 10:34:43;;;;;;;;;;;;;;;;;;5080858;28;19931;-59
2022/09/27 10:37:08;;;;;;;;;;;;;;;;;;5086258;28;19920;-59
2022/09/27 10:39:36;;;;;;;;;;;;;;;;;;5083329;28;20536;-60
2022/09/27 10:42:02;;;;;;;;;;;;;;;;;;5092728;28;19920;-60
2022/09/27 10:44:37;;;;;;;;;;;;;;;;;;5078961;28;20352;-60
2022/09/27 10:47:15;;;;;;;;;;;;;;;;;;5080572;28;20062;-59
2022/09/27 10:49:51;;;;;;;;;;;;;;;;;;5085402;28;19950;-60
2022/09/27 10:52:41;;;;;;;;;;;;;;;;;;5085049;28;19920;-60
2022/09/27 10:55:06;;;;;;;;;;;;;;;;;;5095090;28;20339;-59
2022/09/27 10:57:32;;;;;;;;;;;;;;;;;;5078322;28;19960;-59
2022/09/27 10:59:58;;;;;;;;;;;;;;;;;;5076902;28;19912;-59
2022/09/27 11:02:24;;;;;;;;;;;;;;;;;;5079821;28;19912;-59
2022/09/27 11:05:11;;;;;;;;;;;;;;;;;;5078396;28;20005;-59
2022/09/27 11:07:37;;;;;;;;;;;;;;;;;;5091625;28;19920;-61
2022/09/27 11:10:06;;;;;;;;;;;;;;;;;;5081347;28;19917;-59
2022/09/27 11:12:35;;;;;;;;;;;;;;;;;;5083145;28;19916;-59
2022/09/27 11:15:01;;;;;;;;;;;;;;;;;;5096359;28;19958;-60
2022/09/27 11:17:26;;;;;;;;;;;;;;;;;;5085018;28;19965;-60
2022/09/27 11:19:57;;;;;;;;;;;;;;;;;;5083380;28;19918;-60
2022/09/27 11:22:22;;;;;;;;;;;;;;;;;;5077504;28;20700;-60
2022/09/27 11:24:47;;;;;;;;;;;;;;;;;;5084049;28;20003;-60
2022/09/27 11:27:14;;;;;;;;;;;;;;;;;;5078354;28;19996;-60
2022/09/27 11:29:39;;;;;;;;;;;;;;;;;;5085182;28;20376;-60
2022/09/27 11:32:31;;;;;;;;;;;;;;;;;;5092724;28;20448;-60
2022/09/27 11:34:57;;;;;;;;;;;;;;;;;;5078772;28;19924;-59
2022/09/27 11:37:22;;;;;;;;;;;;;;;;;;5095665;28;19961;-60
2022/09/27 11:39:49;;;;;;;;;;;;;;;;;;5083391;28;19939;-59
2022/09/27 11:42:15;;;;;;;;;;;;;;;;;;5093338;28;19927;-59
2022/09/27 11:44:41;;;;;;;;;;;;;;;;;;5082984;28;19916;-58
2022/09/27 11:47:07;;;;;;;;;;;;;;;;;;5078919;28;19923;-58
2022/09/27 11:49:33;;;;;;;;;;;;;;;;;;5090451;28;20405;-58
2022/09/27 11:52:03;;;;;;;;;;;;;;;;;;5081127;28;19915;-59
2022/09/27 11:54:29;;;;;;;;;;;;;;;;;;5095991;28;19920;-59
2022/09/27 11:56:54;;;;;;;;;;;;;;;;;;5085742;28;20267;-59
2022/09/27 11:59:20;;;;;;;;;;;;;;;;;;5093627;28;19916;-59
2022/09/27 12:01:45;;;;;;;;;;;;;;;;;;5083487;28;19916;-59
2022/09/27 12:04:10;;;;;;;;;;;;;;;;;;5083204;28;20301;-59
2022/09/27 12:06:36;;;;;;;;;;;;;;;;;;5095194;28;19999;-59
2022/09/27 12:09:01;;;;;;;;;;;;;;;;;;5080084;28;20011;-59
2022/09/27 12:11:29;;;;;;;;;;;;;;;;;;5083392;28;19916;-59
2022/09/27 12:13:54;;;;;;;;;;;;;;;;;;5082708;28;19916;-59
2022/09/27 12:16:19;;;;;;;;;;;;;;;;;;5079331;28;19986;-60
2022/09/27 12:18:46;;;;;;;;;;;;;;;;;;5076433;28;19920;-59
2022/09/27 12:21:32;;;;;;;;;;;;;;;;;;5080514;28;19920;-60
2022/09/27 12:23:58;;;;;;;;;;;;;;;;;;5077220;28;19970;-60
2022/09/27 12:26:31;;;;;;;;;;;;;;;;;;5078392;28;19916;-60
2022/09/27 12:28:56;;;;;;;;;;;;;;;;;;5078890;28;19916;-60
2022/09/27 12:31:24;;;;;;;;;;;;;;;;;;5091753;28;20014;-60
2022/09/27 12:33:50;;;;;;;;;;;;;;;;;;5096125;28;19931;-60
2022/09/27 12:36:16;;;;;;;;;;;;;;;;;;5081448;28;19924;-60
2022/09/27 12:38:41;;;;;;;;;;;;;;;;;;5084079;28;19920;-60
2022/09/27 12:41:07;;;;;;;;;;;;;;;;;;5078048;28;19938;-60
2022/09/27 12:43:38;;;;;;;;;;;;;;;;;;5094463;28;20256;-61
2022/09/27 12:46:22;;;;;;;;;;;;;;;;;;5076883;28;19916;-61
2022/09/27 12:48:47;;;;;;;;;;;;;;;;;;5084202;28;19922;-61
2022/09/27 12:51:13;;;;;;;;;;;;;;;;;;5077413;28;19917;-61
2022/09/27 12:53:39;;;;;;;;;;;;;;;;;;5082352;28;20007;-61
2022/09/27 12:56:05;;;;;;;;;;;;;;;;;;5076566;28;19978;-61
2022/09/27 12:58:30;;;;;;;;;;;;;;;;;;5075800;28;19912;-61
2022/09/27 13:00:55;;;;;;;;;;;;;;;;;;5085632;28;19916;-61
2022/09/27 13:03:21;;;;;;;;;;;;;;;;;;5081741;28;20418;-61
2022/09/27 13:05:53;;;;;;;;;;;;;;;;;;5090349;28;19923;-61
2022/09/27 13:08:18;;;;;;;;;;;;;;;;;;5082628;28;19916;-60
2022/09/27 13:10:46;;;;;;;;;;;;;;;;;;5076117;28;20005;-60
2022/09/27 13:13:21;;;;;;;;;;;;;;;;;;5096103;28;19924;-61
2022/09/27 13:15:46;;;;;;;;;;;;;;;;;;5080042;28;19924;-61
2022/09/27 13:18:11;;;;;;;;;;;;;;;;;;5082077;28;19919;-60
2022/09/27 13:20:47;;;;;;;;;;;;;;;;;;5092983;28;19916;-61
2022/09/27 13:23:33;;;;;;;;;;;;;;;;;;5075903;28;20503;-61
2022/09/27 13:26:02;;;;;;;;;;;;;;;;;;5075947;28;20349;-61
2022/09/27 13:28:37;;;;;;;;;;;;;;;;;;5077022;28;19916;-61
2022/09/27 13:31:08;;;;;;;;;;;;;;;;;;5078823;28;20069;-60
2022/09/27 13:33:34;;;;;;;;;;;;;;;;;;5077482;28;20003;-61
2022/09/27 13:36:01;;;;;;;;;;;;;;;;;;5081773;28;19924;-61
2022/09/27 13:38:27;;;;;;;;;;;;;;;;;;5081367;28;20339;-61
2022/09/27 13:40:52;;;;;;;;;;;;;;;;;;5082082;28;19916;-60
2022/09/27 13:43:29;;;;;;;;;;;;;;;;;;5084607;28;19916;-62
2022/09/27 13:45:58;;;;;;;;;;;;;;;;;;5077413;28;20412;-60
2022/09/27 13:48:24;;;;;;;;;;;;;;;;;;5076467;28;20384;-60
2022/09/27 13:50:50;;;;;;;;;;;;;;;;;;5077005;28;19920;-60
2022/09/27 13:53:17;;;;;;;;;;;;;;;;;;5079764;28;20332;-60
2022/09/27 13:55:42;;;;;;;;;;;;;;;;;;5084711;28;19924;-61
2022/09/27 13:58:12;;;;;;;;;;;;;;;;;;5085901;28;20300;-61
2022/09/27 14:00:37;;;;;;;;;;;;;;;;;;5082492;28;19920;-60
2022/09/27 14:03:09;;;;;;;;;;;;;;;;;;5082127;28;20551;-60
2022/09/27 14:05:34;;;;;;;;;;;;;;;;;;5075181;28;19916;-62
2022/09/27 14:08:01;;;;;;;;;;;;;;;;;;5080532;28;19924;-59
2022/09/27 14:10:26;;;;;;;;;;;;;;;;;;5078916;28;20446;-59
2022/09/27 14:12:51;;;;;;;;;;;;;;;;;;5080717;28;19924;-59
2022/09/27 14:15:17;;;;;;;;;;;;;;;;;;5077841;28;19924;-60
2022/09/27 14:17:45;;;;;;;;;;;;;;;;;;5080929;28;20376;-59
2022/09/27 14:20:12;;;;;;;;;;;;;;;;;;5083946;28;20015;-59
2022/09/27 14:22:37;;;;;;;;;;;;;;;;;;5084362;28;20034;-59
2022/09/27 14:25:03;;;;;;;;;;;;;;;;;;5080504;28;19970;-59
2022/09/27 14:27:33;;;;;;;;;;;;;;;;;;5087071;28;19924;-59
2022/09/27 14:30:04;;;;;;;;;;;;;;;;;;5101144;28;19916;-59
2022/09/27 14:32:32;;;;;;;;;;;;;;;;;;5098002;28;20021;-60
2022/09/27 14:35:01;;;;;;;;;;;;;;;;;;5084499;28;20460;-60
2022/09/27 14:37:27;;;;;;;;;;;;;;;;;;5083577;28;19952;-59
2022/09/27 14:40:05;;;;;;;;;;;;;;;;;;5078012;28;19938;-60
2022/09/27 14:42:35;;;;;;;;;;;;;;;;;;5078353;28;19917;-59
2022/09/27 14:45:00;;;;;;;;;;;;;;;;;;5092775;28;20027;-59
2022/09/27 14:47:26;;;;;;;;;;;;;;;;;;5078505;28;20015;-59
2022/09/27 14:49:51;;;;;;;;;;;;;;;;;;5079168;28;20360;-59
2022/09/27 14:52:17;;;;;;;;;;;;;;;;;;5085678;28;20364;-59
2022/09/27 14:54:42;;;;;;;;;;;;;;;;;;5077896;28;19927;-60
2022/09/27 14:57:08;;;;;;;;;;;;;;;;;;5078055;28;19916;-59
2022/09/27 14:59:33;;;;;;;;;;;;;;;;;;5079580;28;19948;-59
2022/09/27 15:02:02;;;;;;;;;;;;;;;;;;5077798;28;19973;-59
2022/09/27 15:04:27;;;;;;;;;;;;;;;;;;5077304;28;19928;-59
2022/09/27 15:06:53;;;;;;;;;;;;;;;;;;5076305;28;19920;-60
2022/09/27 15:09:18;;;;;;;;;;;;;;;;;;5076575;28;20003;-59
2022/09/27 15:11:43;;;;;;;;;;;;;;;;;;5080056;28;19920;-59
2022/09/27 15:14:09;;;;;;;;;;;;;;;;;;5080156;28;20557;-59
2022/09/27 15:16:35;;;;;;;;;;;;;;;;;;5076885;28;20409;-59
2022/09/27 15:19:02;;;;;;;;;;;;;;;;;;5078120;28;20007;-61
2022/09/27 15:21:27;;;;;;;;;;;;;;;;;;5077705;28;20525;-59
2022/09/27 15:23:54;;;;;;;;;;;;;;;;;;5079328;28;19916;-59
2022/09/27 15:26:19;;;;;;;;;;;;;;;;;;5076181;28;20034;-59
2022/09/27 15:28:45;;;;;;;;;;;;;;;;;;5073706;28;20672;-59
2022/09/27 15:31:10;;;;;;;;;;;;;;;;;;5064103;28;19920;-60
2022/09/27 15:33:36;;;;;;;;;;;;;;;;;;5067067;28;19966;-59
2022/09/27 15:36:02;;;;;;;;;;;;;;;;;;5064012;28;19931;-59
2022/09/27 15:38:27;;;;;;;;;;;;;;;;;;5079614;28;20025;-59
2022/09/27 15:40:52;;;;;;;;;;;;;;;;;;5064033;28;20144;-60
2022/09/27 15:43:18;;;;;;;;;;;;;;;;;;5067314;28;19927;-60
2022/09/27 15:45:44;;;;;;;;;;;;;;;;;;5066501;28;19990;-59
2022/09/27 15:48:09;;;;;;;;;;;;;;;;;;5073284;28;20322;-60
2022/09/27 15:50:34;;;;;;;;;;;;;;;;;;5075059;28;19923;-59
2022/09/27 15:53:01;;;;;;;;;;;;;;;;;;5070089;28;20011;-59
2022/09/27 15:55:26;;;;;;;;;;;;;;;;;;5065004;28;19928;-59
2022/09/27 15:57:52;;;;;;;;;;;;;;;;;;5066469;28;20358;-60
2022/09/27 16:00:17;;;;;;;;;;;;;;;;;;5065997;28;20194;-60
2022/09/27 16:02:42;;;;;;;;;;;;;;;;;;5065853;28;20600;-59
2022/09/27 16:05:07;;;;;;;;;;;;;;;;;;5062252;28;20015;-59
2022/09/27 16:07:33;;;;;;;;;;;;;;;;;;5062460;28;19959;-59
2022/09/27 16:09:58;;;;;;;;;;;;;;;;;;5072333;28;20295;-59
2022/09/27 16:12:24;;;;;;;;;;;;;;;;;;5064013;28;19938;-59
2022/09/27 16:14:49;;;;;;;;;;;;;;;;;;5067861;28;20563;-60
2022/09/27 16:17:14;;;;;;;;;;;;;;;;;;5062509;28;19917;-59
2022/09/27 16:19:39;;;;;;;;;;;;;;;;;;5065853;28;20014;-60
2022/09/27 16:22:04;;;;;;;;;;;;;;;;;;5074012;28;19970;-59
2022/09/27 16:24:30;;;;;;;;;;;;;;;;;;5067280;28;20391;-59
2022/09/27 16:26:56;;;;;;;;;;;;;;;;;;5068903;28;19955;-59
2022/09/27 16:29:21;;;;;;;;;;;;;;;;;;5065265;28;19919;-56
2022/09/27 16:31:46;;;;;;;;;;;;;;;;;;5065586;28;19920;-59
2022/09/27 16:34:11;;;;;;;;;;;;;;;;;;5071667;28;19916;-59
2022/09/27 16:36:37;;;;;;;;;;;;;;;;;;5064446;28;19962;-60
2022/09/27 16:39:06;;;;;;;;;;;;;;;;;;5070000;28;19912;-58
2022/09/27 16:41:32;;;;;;;;;;;;;;;;;;5065130;28;20385;-59
2022/09/27 16:43:57;;;;;;;;;;;;;;;;;;5064619;28;19920;-58
2022/09/27 16:46:22;;;;;;;;;;;;;;;;;;5072813;28;20319;-59
2022/09/27 16:48:48;;;;;;;;;;;;;;;;;;5067676;28;20495;-59
2022/09/27 16:53:57;;;;;;;;;;;;;;;;;;5067792;28;19916;-59
2022/09/27 16:56:23;;;;;;;;;;;;;;;;;;5064796;28;19924;-59
2022/09/27 16:58:48;;;;;;;;;;;;;;;;;;5073540;28;20075;-59
2022/09/27 17:01:15;;;;;;;;;;;;;;;;;;5063711;28;19923;-58
2022/09/27 17:03:41;;;;;;;;;;;;;;;;;;5073088;28;20388;-59